Flight Track Log - Related Links

Times and Time Zones

All times are in EDT time to prevent confusion due to time zone crossing. See the UAL1177 flight status page for this flight to view local times or setup timezone preferences in your user account.

Time Position Orientation Groundspeed Altitude Reporting Facility
EDT Latitude Longitude Course Direction KTS MPH feet Rate Location/Type
Fri 03:45:47 PM 37.6333 -122.3500 67° East 167 192 900  Level Northern Cal TRACON
Fri 03:46:48 PM 37.6833 -122.3000 38° Northeast 207 238 3,400 2,299 Climbing Northern Cal TRACON
Fri 03:47:34 PM 37.7039 -122.2650 53° Northeast 233 268 5,000 2,833 Climbing Oakland Center
Fri 03:48:36 PM 37.7486 -122.1894 53° Northeast 271 312 8,500 3,317 Climbing Oakland Center
Fri 03:49:00 PM 37.6449 -122.2706 72° East  Level FlightAware Approximate
Fri 03:49:37 PM 37.7794 -122.0750 71° East 290 334 11,800  Level Oakland Center
Fri 03:50:00 PM 37.6960 -122.1247 58° Northeast  Level FlightAware Approximate
Fri 03:50:39 PM 37.8108 -121.9636 70° East 331 381 14,700  Level Oakland Center
Fri 03:51:00 PM 37.7417 -121.9749 67° East  Level FlightAware Approximate
Fri 03:51:40 PM 37.8439 -121.8444 71° East 356 410 17,700  Level Oakland Center
Fri 03:52:42 PM 37.8781 -121.7214 71° East 370 426 20,100 2,537 Climbing Oakland Center
Fri 03:53:43 PM 37.9136 -121.5956 70° East 381 438 22,900 2,537 Climbing Oakland Center
Fri 03:54:45 PM 37.9503 -121.4589 71° East 384 442 25,300 2,049 Climbing Oakland Center
Fri 03:55:46 PM 37.9867 -121.3281 71° East 393 452 27,100 1,707 Climbing Oakland Center
Fri 03:56:48 PM 38.0236 -121.1900 71° East 411 473 28,800 1,561 Climbing Oakland Center
Fri 03:57:49 PM 38.0619 -121.0514 71° East 419 482 30,300 1,756 Climbing Oakland Center
Fri 03:58:51 PM 38.0931 -120.8731 77° East 435 501 32,400 1,805 Climbing Oakland Center
Fri 03:59:52 PM 38.1128 -120.7256 80° East 430 495 34,000 1,317 Climbing Oakland Center
Fri 04:00:54 PM 38.1325 -120.5756 80° East 431 496 35,100 1,113 Climbing Oakland Center
Fri 04:01:56 PM 38.1528 -120.4244 80° East 435 501 36,300 927 Climbing Oakland Center
Fri 04:02:57 PM 38.1731 -120.2714 80° East 440 506 37,000 341 Climbing Oakland Center
Fri 04:03:59 PM 38.1939 -120.1192 80° East 440 506 37,000  Level Oakland Center
Fri 04:05:00 PM 38.2108 -119.9692 82° East 436 502 37,000  Level Oakland Center
Fri 04:06:02 PM 38.2344 -119.7894 80° East 433 498 37,000  Level Oakland Center
Fri 04:07:04 PM 38.2544 -119.6389 80° East 434 499 37,000  Level Oakland Center
Fri 04:08:05 PM 38.2725 -119.4897 81° East 431 496 37,000  Level Oakland Center
Fri 04:09:07 PM 38.2906 -119.3356 81° East 433 498 37,000 -49 Level Oakland Center
Fri 04:10:08 PM 38.3092 -119.1817 81° East 440 506 36,900  Descending Oakland Center
Fri 04:11:10 PM 38.3269 -119.0286 82° East 440 506 37,000 49 Climbing Oakland Center
Fri 04:12:11 PM 38.3447 -118.8747 82° East 442 509 37,000  Level Oakland Center
Fri 04:13:13 PM 38.3631 -118.7206 81° East 443 510 37,000  Level Oakland Center
Fri 04:14:14 PM 38.3836 -118.5381 82° East 437 503 37,000  Level Oakland Center
Fri 04:15:16 PM 38.4008 -118.3881 82° East 431 496 37,000  Level Oakland Center
Fri 04:16:17 PM 38.4175 -118.2375 82° East 431 496 37,000  Level Oakland Center
Fri 04:17:19 PM 38.4339 -118.0878 82° East 431 496 37,000  Level Oakland Center
Fri 04:18:21 PM 38.4508 -117.9378 82° East 427 491 37,000  Level Oakland Center
Fri 04:19:22 PM 38.4675 -117.7867 82° East 428 493 37,000  Level Oakland Center
Fri 04:20:24 PM 38.4836 -117.6339 82° East 430 495 37,000  Level Oakland Center
Fri 04:20:50 PM 38.4911 -117.5717 81° East 435 501 37,000  Level Salt Lake Center
Fri 04:21:25 PM 38.5003 -117.4806 83° East 433 498 37,000  Level Oakland Center
Fri 04:22:27 PM 38.5153 -117.3292 83° East 427 491 37,000  Level Oakland Center
Fri 04:22:53 PM 38.5197 -117.2372 86° East 428 493 37,000  Level Salt Lake Center
Fri 04:23:55 PM 38.5156 -117.0847 92° East 426 490 37,000  Level Salt Lake Center
Fri 04:24:30 PM 38.5136 -116.9928 92° East 426 490 37,000  Level Oakland Center
Fri 04:25:31 PM 38.5106 -116.8414 91° East 423 487 37,000  Level Oakland Center
Fri 04:26:33 PM 38.5067 -116.6914 92° East 423 487 37,000  Level Oakland Center
Fri 04:27:34 PM 38.5019 -116.5411 92° East 422 486 37,000  Level Oakland Center
Fri 04:28:01 PM 38.5003 -116.4825 92° East 419 482 37,000  Level Salt Lake Center
Fri 04:29:03 PM 38.4978 -116.3342 91° East 417 480 37,000  Level Salt Lake Center
Fri 04:29:37 PM 38.4944 -116.2456 93° East 414 476 37,000  Level Oakland Center
Fri 04:30:39 PM 38.4900 -116.0947 92° East 423 487 37,000  Level Oakland Center
Fri 04:31:06 PM 38.4889 -116.0347 91° East 424 488 37,000  Level Salt Lake Center
Fri 04:32:08 PM 38.4833 -115.8561 92° East 420 483 37,000  Level Salt Lake Center
Fri 04:33:09 PM 38.4783 -115.7072 92° East 421 484 37,000  Level Salt Lake Center
Fri 04:34:11 PM 38.4733 -115.5569 92° East 423 487 37,000  Level Salt Lake Center
Fri 04:35:13 PM 38.4689 -115.4058 92° East 426 490 37,000  Level Salt Lake Center
Fri 04:36:14 PM 38.4639 -115.2425 92° East 424 488 37,000  Level Salt Lake Center
Fri 04:37:16 PM 38.4578 -115.0919 93° East 424 488 37,000  Level Salt Lake Center
Fri 04:38:18 PM 38.4514 -114.9428 93° East 423 487 37,000  Level Salt Lake Center
Fri 04:39:19 PM 38.4464 -114.7922 92° East 425 489 37,000  Level Salt Lake Center
Fri 04:40:21 PM 38.4406 -114.6436 93° East 422 486 37,000  Level Salt Lake Center
Fri 04:41:23 PM 38.4333 -114.4944 93° East 423 487 37,000  Level Salt Lake Center
Fri 04:42:25 PM 38.4272 -114.3436 93° East 425 489 37,000  Level Salt Lake Center
Fri 04:43:26 PM 38.4208 -114.1925 93° East 427 491 37,000  Level Salt Lake Center
Fri 04:44:28 PM 38.4122 -114.0111 93° East 428 493 37,000  Level Salt Lake Center
Fri 04:45:30 PM 38.4053 -113.8583 93° East 431 496 37,000  Level Salt Lake Center
Fri 04:46:31 PM 38.3981 -113.7069 93° East 429 494 37,000  Level Salt Lake Center
Fri 04:47:33 PM 38.3900 -113.5539 94° East 432 497 37,000  Level Salt Lake Center
Fri 04:48:35 PM 38.3814 -113.3992 94° East 436 502 37,000  Level Salt Lake Center
Fri 04:49:36 PM 38.3742 -113.2442 93° East 437 503 37,000  Level Salt Lake Center
Fri 04:50:38 PM 38.3656 -113.0881 94° East 441 507 37,000  Level Salt Lake Center
Fri 04:51:40 PM 38.3753 -112.9344 85° East 440 506 37,000  Level Salt Lake Center
Fri 04:52:41 PM 38.4083 -112.7536 77° East 435 501 37,000  Level Salt Lake Center
Fri 04:53:43 PM 38.4369 -112.6036 76° East 435 501 37,000  Level Salt Lake Center
Fri 04:54:45 PM 38.4628 -112.4533 78° East 434 499 37,000  Level Salt Lake Center
Fri 04:55:46 PM 38.4900 -112.3053 77° East 430 495 37,000  Level Salt Lake Center
Fri 04:56:48 PM 38.5161 -112.1592 77° East 424 488 37,000  Level Salt Lake Center
Fri 04:57:50 PM 38.5422 -112.0100 77° East 429 494 37,000  Level Salt Lake Center
Fri 04:58:52 PM 38.5683 -111.8606 77° East 431 496 37,000  Level Salt Lake Center
Fri 04:59:53 PM 38.5956 -111.7131 77° East 428 493 37,000  Level Salt Lake Center
Fri 05:00:55 PM 38.6250 -111.5325 78° East 432 497 37,000  Level Salt Lake Center
Fri 05:01:57 PM 38.6508 -111.3836 77° East 430 495 37,000  Level Salt Lake Center
Fri 05:02:58 PM 38.6764 -111.2328 78° East 433 498 37,000  Level Salt Lake Center
Fri 05:04:00 PM 38.7014 -111.0839 78° East 431 496 37,000  Level Salt Lake Center
Fri 05:05:02 PM 38.7303 -110.9142 78° East 434 499 37,000  Level Salt Lake Center
Fri 05:06:04 PM 38.7542 -110.7706 78° East 433 498 37,000  Level Salt Lake Center
Fri 05:07:05 PM 38.7775 -110.6261 78° East 433 498 37,000  Level Salt Lake Center
Fri 05:08:07 PM 38.8042 -110.4578 78° East 433 498 37,000  Level Salt Lake Center
Fri 05:08:42 PM 38.8181 -110.3592 80° East 435 501 37,000  Level Denver Center
Fri 05:09:44 PM 38.8389 -110.2125 80° East 438 504 37,000  Level Denver Center
Fri 05:10:46 PM 38.8633 -110.0692 78° East 433 498 37,000  Level Denver Center
Fri 05:11:12 PM 38.8758 -109.9981 77° East 436 502 37,000  Level Salt Lake Center
Fri 05:12:14 PM 38.9036 -109.8319 78° East 431 496 37,000  Level Salt Lake Center
Fri 05:12:50 PM 38.9125 -109.7572 81° East 431 496 37,000  Level Denver Center
Fri 05:14:04 PM 38.9386 -109.5903 79° East 429 494 37,000  Level Denver Center
Fri 05:15:07 PM 38.9681 -109.3975 79° East 432 497 37,000  Level Denver Center
Fri 05:16:09 PM 38.9889 -109.2547 79° East 427 491 37,000  Level Denver Center
Fri 05:17:11 PM 39.0153 -109.0883 78° East 427 491 37,000  Level Denver Center
Fri 05:18:13 PM 39.0369 -108.9447 79° East 428 493 37,000  Level Denver Center
Fri 05:19:15 PM 39.0606 -108.7786 80° East 427 491 37,000  Level Denver Center
Fri 05:20:17 PM 39.0908 -108.6392 74° East 424 488 37,000  Level Denver Center
Fri 05:21:19 PM 39.1258 -108.4747 75° East 429 494 37,000  Level Denver Center
Fri 05:22:21 PM 39.1539 -108.3339 76° East 428 493 37,000  Level Denver Center
Fri 05:23:23 PM 39.1883 -108.1692 75° East 428 493 37,000  Level Denver Center
Fri 05:24:25 PM 39.2169 -108.0261 75° East 432 497 37,000  Level Denver Center
Fri 05:25:27 PM 39.2511 -107.8597 75° East 433 498 37,000  Level Denver Center
Fri 05:26:29 PM 39.2792 -107.7147 76° East 435 501 37,000  Level Denver Center
Fri 05:27:31 PM 39.3131 -107.5442 76° East 440 506 37,000  Level Denver Center
Fri 05:28:33 PM 39.3422 -107.3989 75° East 438 504 37,000  Level Denver Center
Fri 05:29:35 PM 39.3758 -107.2258 76° East 444 511 37,000  Level Denver Center
Fri 05:30:37 PM 39.4039 -107.0794 76° East 440 506 37,000  Level Denver Center
Fri 05:31:39 PM 39.4344 -106.9100 77° East 435 501 37,000  Level Denver Center
Fri 05:32:41 PM 39.4561 -106.7581 79° East 445 512 37,000  Level Denver Center
Fri 05:33:43 PM 39.4736 -106.6092 81° East 441 507 37,000  Level Denver Center
Fri 05:34:45 PM 39.4922 -106.4475 81° East 444 511 37,000  Level Denver Center
Fri 05:35:48 PM 39.5111 -106.2886 81° East 446 513 37,000  Level Denver Center
Fri 05:36:50 PM 39.5317 -106.1050 82° East 442 509 37,000  Level Denver Center
Fri 05:37:52 PM 39.5483 -105.9461 82° East 441 507 37,000  Level Denver Center
Fri 05:38:54 PM 39.5694 -105.7836 80° East 455 524 37,000  Level Denver Center
Fri 05:39:56 PM 39.5864 -105.6219 82° East 450 518 37,000  Level Denver Center
Fri 05:40:58 PM 39.6028 -105.4619 82° East 447 514 37,000  Level Denver Center
Fri 05:42:00 PM 39.6228 -105.2744 82° East 446 513 37,000  Level Denver Center
Fri 05:43:02 PM 39.6397 -105.1114 82° East 448 516 37,000  Level Denver Center
Fri 05:44:04 PM 39.6553 -104.9519 83° East 441 507 37,000  Level Denver Center
Fri 05:45:06 PM 39.6711 -104.7919 83° East 443 510 37,000  Level Denver Center
Fri 05:46:08 PM 39.6892 -104.6278 82° East 438 504 37,000  Level Denver Center
Fri 05:47:10 PM 39.6769 -104.4647 96° East 433 498 37,000  Level Denver Center
Fri 05:48:12 PM 39.6608 -104.3042 97° East 438 504 37,000  Level Denver Center
Fri 05:49:14 PM 39.6456 -104.1419 97° East 447 514 37,000  Level Denver Center
Fri 05:50:16 PM 39.6292 -103.9839 98° East 440 506 37,000  Level Denver Center
Fri 05:51:18 PM 39.6133 -103.8231 97° East 441 507 37,000 48 Level Denver Center
Fri 05:52:20 PM 39.5992 -103.6658 97° East 436 502 37,100 387 Climbing Denver Center
Fri 05:53:22 PM 39.5803 -103.4717 97° East 460 529 37,800 919 Climbing Denver Center
Fri 05:54:24 PM 39.5631 -103.3025 97° East 469 540 39,000 576 Climbing Denver Center
Fri 05:55:27 PM 39.5461 -103.1358 97° East 464 534 39,000  Level Denver Center
Fri 05:56:29 PM 39.5292 -102.9689 97° East 464 534 39,000  Level Denver Center
Fri 05:57:31 PM 39.5114 -102.8036 98° East 461 531 39,000  Level Denver Center
Fri 05:58:33 PM 39.4928 -102.6378 98° East 462 532 39,000  Level Denver Center
Fri 05:59:35 PM 39.4747 -102.4689 98° East 468 539 39,000  Level Denver Center
Fri 06:00:37 PM 39.4542 -102.2775 98° East 470 541 39,000  Level Denver Center
Fri 06:01:39 PM 39.4367 -102.1183 98° East 468 539 39,000  Level Denver Center
Fri 06:02:41 PM 39.4153 -101.9328 98° East 468 539 39,000  Level Denver Center
Fri 06:03:43 PM 39.3972 -101.7731 98° East 470 541 39,000  Level Denver Center
Fri 06:04:45 PM 39.3772 -101.5853 98° East 474 545 39,000  Level Denver Center
Fri 06:05:47 PM 39.3617 -101.4211 97° East 481 554 39,000  Level Denver Center
Fri 06:06:49 PM 39.3425 -101.2303 97° East 481 554 39,000  Level Denver Center
Fri 06:07:51 PM 39.3261 -101.0658 97° East 483 556 39,000  Level Denver Center
Fri 06:08:53 PM 39.3064 -100.8744 98° East 484 557 39,000  Level Denver Center
Fri 06:09:55 PM 39.2897 -100.7106 97° East 484 557 39,000  Level Denver Center
Fri 06:10:57 PM 39.2692 -100.5189 98° East 484 557 39,000  Level Denver Center
Fri 06:11:59 PM 39.2514 -100.3556 98° East 483 556 39,000  Level Denver Center
Fri 06:13:01 PM 39.2308 -100.1631 98° East 486 559 39,000  Level Denver Center
Fri 06:14:04 PM 39.2125 -99.9972 98° East 488 562 39,000  Level Denver Center
Fri 06:15:06 PM 39.1933 -99.8208 98° East 487 560 39,000  Level Denver Center
Fri 06:16:08 PM 39.1717 -99.6283 98° East 485 558 39,000  Level Denver Center
Fri 06:17:10 PM 39.1531 -99.4642 98° East 484 557 39,000  Level Denver Center
Fri 06:18:12 PM 39.1303 -99.2744 99° East 481 554 39,000  Level Denver Center
Fri 06:19:14 PM 39.1119 -99.1119 98° East 480 552 39,000  Level Denver Center
Fri 06:20:16 PM 39.0922 -98.9514 99° East 479 551 39,000  Level Denver Center
Fri 06:21:14 PM 39.0706 -98.7656 98° East 479 551 39,000  Level Kansas City Center
Fri 06:22:18 PM 39.0497 -98.5972 99° East 476 548 39,000  Level Kansas City Center
Fri 06:23:18 PM 39.0297 -98.4308 99° East 473 544 39,000  Level Kansas City Center
Fri 06:24:22 PM 39.0086 -98.2658 99° East 469 540 39,000  Level Kansas City Center
Fri 06:25:23 PM 38.9875 -98.1019 99° East 466 536 39,000  Level Kansas City Center
Fri 06:26:27 PM 38.9661 -97.9350 99° East 469 540 39,000  Level Kansas City Center
Fri 06:27:28 PM 38.9433 -97.7544 99° East 472 543 39,000  Level Kansas City Center
Fri 06:28:28 PM 38.9167 -97.5678 100° East 473 544 39,000  Level Kansas City Center
Fri 06:29:32 PM 38.8831 -97.4011 104° East 476 548 39,000  Level Kansas City Center
Fri 06:30:35 PM 38.8500 -97.2369 104° East 475 547 39,000  Level Kansas City Center
Fri 06:31:35 PM 38.8181 -97.0728 104° East 474 545 39,000  Level Kansas City Center
Fri 06:32:37 PM 38.7850 -96.9086 104° East 474 545 39,000  Level Kansas City Center
Fri 06:33:41 PM 38.7528 -96.7456 104° East 473 544 39,000  Level Kansas City Center
Fri 06:34:41 PM 38.7122 -96.5508 105° East 473 544 39,000  Level Kansas City Center
Fri 06:35:42 PM 38.6811 -96.3964 104° East 469 540 39,000  Level Kansas City Center
Fri 06:36:45 PM 38.6442 -96.2186 105° East 465 535 39,000  Level Kansas City Center
Fri 06:37:47 PM 38.6142 -96.0675 104° East 462 532 39,000  Level Kansas City Center
Fri 06:38:48 PM 38.5814 -95.9161 105° East 462 532 39,000  Level Kansas City Center
Fri 06:39:52 PM 38.5506 -95.7375 102° East 466 536 39,000  Level Kansas City Center
Fri 06:40:52 PM 38.5567 -95.5758 87° East 472 543 39,000  Level Kansas City Center
Fri 06:41:56 PM 38.5656 -95.3931 86° East 470 541 39,000  Level Kansas City Center
Fri 06:42:57 PM 38.5861 -95.2356 80° East 473 544 39,000  Level Kansas City Center
Fri 06:43:58 PM 38.6128 -95.0514 79° East 474 545 39,000  Level Kansas City Center
Fri 06:45:01 PM 38.6367 -94.8942 79° East 473 544 39,000  Level Kansas City Center
Fri 06:46:02 PM 38.6639 -94.7103 79° East 475 547 39,000  Level Kansas City Center
Fri 06:47:06 PM 38.6881 -94.5508 79° East 478 550 39,000 -336 Level Kansas City Center
Fri 06:48:07 PM 38.7194 -94.3647 78° East 480 552 38,300 -744 Descending Kansas City Center
Fri 06:49:07 PM 38.7458 -94.2061 78° East 477 549 37,500 -968 Descending Kansas City Center
Fri 06:50:11 PM 38.7767 -94.0169 78° East 485 558 36,300 -992 Descending Kansas City Center
Fri 06:51:14 PM 38.8047 -93.8539 78° East 490 564 35,400 -634 Descending Kansas City Center
Fri 06:52:14 PM 38.8389 -93.6653 77° East 487 560 35,000 -496 Descending Kansas City Center
Fri 06:53:15 PM 38.8461 -93.4986 87° East 476 548 34,400 -762 Descending Kansas City Center
Fri 06:54:20 PM 38.8308 -93.3289 97° East 476 548 33,400 -672 Descending Kansas City Center
Fri 06:55:20 PM 38.8164 -93.1594 96° East 475 547 33,000 -194 Descending Kansas City Center
Fri 06:56:24 PM 38.8025 -92.9831 96° East 486 559 33,000  Level Kansas City Center
Fri 06:57:25 PM 38.7875 -92.8056 96° East 494 568 33,000 -98 Level Kansas City Center
Fri 06:58:26 PM 38.7731 -92.6297 96° East 495 570 32,800 -1,872 Descending Kansas City Center
Fri 06:59:30 PM 38.7542 -92.4197 97° East 492 566 29,100 -2,976 Descending Kansas City Center
Fri 07:00:31 PM 38.7383 -92.2444 97° East 492 566 26,600 -2,529 Descending Kansas City Center
Fri 07:01:31 PM 38.7231 -92.0753 97° East 481 554 24,000 -2,419 Descending Kansas City Center
Fri 07:02:35 PM 38.7072 -91.9100 97° East 469 540 21,600 -2,323 Descending Kansas City Center
Fri 07:03:35 PM 38.6922 -91.7478 97° East 460 529 19,200 -2,032 Descending Kansas City Center
Fri 07:04:39 PM 38.6919 -91.5894 90° East 442 509 17,400 -2,129 Descending Kansas City Center
Fri 07:05:39 PM 38.6933 -91.4336 89° East 436 502 14,800 -2,537 Descending Kansas City Center
Fri 07:06:42 PM 38.6933 -91.2853 90° East 400 460 12,200 -1,824 Descending Kansas City Center
Fri 07:07:44 PM 38.6950 -91.1603 89° East 364 419 11,000 -585 Descending Kansas City Center
Fri 07:08:45 PM 38.6947 -91.0361 90° East 352 405 11,000 -387 Level Kansas City Center
Fri 07:09:48 PM 38.7069 -90.9197 82° East 337 388 10,200 -1,403 Descending Kansas City Center
Fri 07:10:49 PM 38.7481 -90.8222 62° Northeast 313 360 8,100 -1,686 Descending Kansas City Center
Fri 07:11:49 PM 38.7903 -90.7167 63° Northeast 276 318 6,800 -1,306 Descending Kansas City Center
Fri 07:12:53 PM 38.8186 -90.6417 64° Northeast 236 272 5,400 -1,488 Descending Kansas City Center
Fri 07:13:54 PM 38.8272 -90.5747 81° East 206 237 3,700 -1,230 Descending Kansas City Center
Fri 07:14:55 PM 38.8175 -90.5072 100° East 197 227 2,900 -816 Descending Kansas City Center
Fri 07:15:59 PM 38.7914 -90.4547 123° Southeast 183 211 2,000 -844 Descending Kansas City Center

Login

Don't have an account? Register now (free) for customized features, flight alerts, and more!